sensor_id;sensor_type;location;lat;lon;timestamp;pressure;altitude;pressure_sealevel;temperature;humidity
68871;BME280;55906;52.278;6.808;2022-10-15T00:00:21;100673.13;;;12.82;99.10
68871;BME280;55906;52.278;6.808;2022-10-15T00:02:48;100675.75;;;12.80;98.98
68871;BME280;55906;52.278;6.808;2022-10-15T00:05:15;100677.44;;;12.75;99.52
68871;BME280;55906;52.278;6.808;2022-10-15T00:07:41;100676.59;;;12.76;99.08
68871;BME280;55906;52.278;6.808;2022-10-15T00:10:08;100673.00;;;12.71;99.48
68871;BME280;55906;52.278;6.808;2022-10-15T00:12:35;100677.41;;;12.72;99.26
68871;BME280;55906;52.278;6.808;2022-10-15T00:15:01;100681.84;;;12.75;98.67
68871;BME280;55906;52.278;6.808;2022-10-15T00:17:31;100675.66;;;12.73;99.40
68871;BME280;55906;52.278;6.808;2022-10-15T00:19:58;100679.97;;;12.66;99.52
68871;BME280;55906;52.278;6.808;2022-10-15T00:22:24;100679.09;;;12.67;99.30
68871;BME280;55906;52.278;6.808;2022-10-15T00:24:51;100672.03;;;12.66;99.12
68871;BME280;55906;52.278;6.808;2022-10-15T00:27:17;100679.06;;;12.64;99.12
68871;BME280;55906;52.278;6.808;2022-10-15T00:29:44;100688.72;;;12.64;99.07
68871;BME280;55906;52.278;6.808;2022-10-15T00:32:10;100677.28;;;12.63;99.10
68871;BME280;55906;52.278;6.808;2022-10-15T00:34:38;100683.44;;;12.64;98.99
68871;BME280;55906;52.278;6.808;2022-10-15T00:37:05;100668.38;;;12.55;99.33
68871;BME280;55906;52.278;6.808;2022-10-15T00:39:32;100670.94;;;12.50;99.21
68871;BME280;55906;52.278;6.808;2022-10-15T00:41:59;100668.31;;;12.52;98.85
68871;BME280;55906;52.278;6.808;2022-10-15T00:44:48;100671.81;;;12.51;97.99
68871;BME280;55906;52.278;6.808;2022-10-15T00:47:17;100666.47;;;12.45;98.49
68871;BME280;55906;52.278;6.808;2022-10-15T00:49:48;100662.03;;;12.42;98.71
68871;BME280;55906;52.278;6.808;2022-10-15T00:52:18;100663.75;;;12.40;98.46
68871;BME280;55906;52.278;6.808;2022-10-15T00:54:50;100663.72;;;12.39;98.16
68871;BME280;55906;52.278;6.808;2022-10-15T00:57:18;100660.13;;;12.34;98.58
68871;BME280;55906;52.278;6.808;2022-10-15T00:59:48;100664.53;;;12.35;98.02
68871;BME280;55906;52.278;6.808;2022-10-15T01:02:17;100668.00;;;12.31;98.31
68871;BME280;55906;52.278;6.808;2022-10-15T01:04:46;100661.84;;;12.30;97.95
68871;BME280;55906;52.278;6.808;2022-10-15T01:07:13;100660.91;;;12.27;98.36
68871;BME280;55906;52.278;6.808;2022-10-15T01:09:40;100670.56;;;12.26;98.22
68871;BME280;55906;52.278;6.808;2022-10-15T01:12:09;100662.63;;;12.25;98.04
68871;BME280;55906;52.278;6.808;2022-10-15T01:14:43;100658.25;;;12.25;97.91
68871;BME280;55906;52.278;6.808;2022-10-15T01:17:19;100666.09;;;12.21;98.44
68871;BME280;55906;52.278;6.808;2022-10-15T01:20:14;100660.81;;;12.21;98.49
68871;BME280;55906;52.278;6.808;2022-10-15T01:23:07;100654.69;;;12.23;98.21
68871;BME280;55906;52.278;6.808;2022-10-15T01:25:48;100652.88;;;12.19;98.19
68871;BME280;55906;52.278;6.808;2022-10-15T01:28:23;100652.91;;;12.21;97.82
68871;BME280;55906;52.278;6.808;2022-10-15T01:31:04;100653.75;;;12.18;98.03
68871;BME280;55906;52.278;6.808;2022-10-15T01:33:36;100655.50;;;12.19;98.39
68871;BME280;55906;52.278;6.808;2022-10-15T01:36:12;100645.81;;;12.18;97.95
68871;BME280;55906;52.278;6.808;2022-10-15T01:38:48;100649.38;;;12.20;97.98
68871;BME280;55906;52.278;6.808;2022-10-15T01:41:20;100647.59;;;12.19;98.01
68871;BME280;55906;52.278;6.808;2022-10-15T01:43:54;100648.47;;;12.20;98.09
68871;BME280;55906;52.278;6.808;2022-10-15T01:46:26;100644.03;;;12.15;98.27
68871;BME280;55906;52.278;6.808;2022-10-15T01:48:55;100647.56;;;12.17;97.76
68871;BME280;55906;52.278;6.808;2022-10-15T01:51:24;100656.38;;;12.18;97.89
68871;BME280;55906;52.278;6.808;2022-10-15T01:53:53;100640.53;;;12.16;97.98
68871;BME280;55906;52.278;6.808;2022-10-15T01:56:22;100646.75;;;12.22;98.17
68871;BME280;55906;52.278;6.808;2022-10-15T01:58:52;100648.44;;;12.16;98.35
68871;BME280;55906;52.278;6.808;2022-10-15T02:01:20;100651.06;;;12.15;98.53
68871;BME280;55906;52.278;6.808;2022-10-15T02:03:50;100642.31;;;12.19;98.01
68871;BME280;55906;52.278;6.808;2022-10-15T02:06:21;100645.88;;;12.21;98.09
68871;BME280;55906;52.278;6.808;2022-10-15T02:09:00;100648.41;;;12.15;98.61
68871;BME280;55906;52.278;6.808;2022-10-15T02:11:38;100641.38;;;12.15;98.42
68871;BME280;55906;52.278;6.808;2022-10-15T02:14:09;100646.69;;;12.17;98.75
68871;BME280;55906;52.278;6.808;2022-10-15T02:16:40;100643.13;;;12.15;98.11
68871;BME280;55906;52.278;6.808;2022-10-15T02:19:13;100634.25;;;12.08;98.64
68871;BME280;55906;52.278;6.808;2022-10-15T02:21:43;100641.25;;;12.06;98.88
68871;BME280;55906;52.278;6.808;2022-10-15T02:24:14;100639.50;;;12.07;98.53
68871;BME280;55906;52.278;6.808;2022-10-15T02:26:43;100635.91;;;12.03;98.23
68871;BME280;55906;52.278;6.808;2022-10-15T02:29:12;100627.94;;;11.99;98.18
68871;BME280;55906;52.278;6.808;2022-10-15T02:31:43;100629.63;;;11.95;97.85
68871;BME280;55906;52.278;6.808;2022-10-15T02:34:15;100624.34;;;11.94;97.88
68871;BME280;55906;52.278;6.808;2022-10-15T02:36:43;100628.78;;;11.96;97.75
68871;BME280;55906;52.278;6.808;2022-10-15T02:39:13;100622.56;;;11.93;98.01
68871;BME280;55906;52.278;6.808;2022-10-15T02:41:42;100641.84;;;11.90;98.24
68871;BME280;55906;52.278;6.808;2022-10-15T02:44:09;100631.31;;;11.90;98.09
68871;BME280;55906;52.278;6.808;2022-10-15T02:46:36;100624.28;;;11.91;97.77
68871;BME280;55906;52.278;6.808;2022-10-15T02:49:02;100622.50;;;11.88;97.52
68871;BME280;55906;52.278;6.808;2022-10-15T02:51:31;100625.13;;;11.88;97.93
68871;BME280;55906;52.278;6.808;2022-10-15T02:53:59;100619.84;;;11.88;97.42
68871;BME280;55906;52.278;6.808;2022-10-15T02:56:25;100617.16;;;11.83;97.63
68871;BME280;55906;52.278;6.808;2022-10-15T02:58:52;100611.81;;;11.80;97.17
68871;BME280;55906;52.278;6.808;2022-10-15T03:01:19;100612.66;;;11.78;97.32
68871;BME280;55906;52.278;6.808;2022-10-15T03:03:45;100609.00;;;11.71;97.30
68871;BME280;55906;52.278;6.808;2022-10-15T03:06:12;100598.41;;;11.70;97.13
68871;BME280;55906;52.278;6.808;2022-10-15T03:08:40;100606.22;;;11.65;96.64
68871;BME280;55906;52.278;6.808;2022-10-15T03:11:09;100602.59;;;11.59;96.56
68871;BME280;55906;52.278;6.808;2022-10-15T03:13:36;100598.16;;;11.54;96.84
68871;BME280;55906;52.278;6.808;2022-10-15T03:16:03;100600.72;;;11.51;96.89
68871;BME280;55906;52.278;6.808;2022-10-15T03:18:31;100605.94;;;11.48;97.35
68871;BME280;55906;52.278;6.808;2022-10-15T03:20:57;100596.25;;;11.46;96.71
68871;BME280;55906;52.278;6.808;2022-10-15T03:23:25;100596.19;;;11.43;97.01
68871;BME280;55906;52.278;6.808;2022-10-15T03:25:53;100597.88;;;11.39;97.57
68871;BME280;55906;52.278;6.808;2022-10-15T03:28:20;100603.13;;;11.38;97.72
68871;BME280;55906;52.278;6.808;2022-10-15T03:30:46;100604.84;;;11.37;97.84
68871;BME280;55906;52.278;6.808;2022-10-15T03:33:13;100605.69;;;11.35;97.80
68871;BME280;55906;52.278;6.808;2022-10-15T03:35:40;100610.19;;;11.40;97.54
68871;BME280;55906;52.278;6.808;2022-10-15T03:38:07;100605.84;;;11.42;97.48
68871;BME280;55906;52.278;6.808;2022-10-15T03:40:33;100605.00;;;11.45;97.88
68871;BME280;55906;52.278;6.808;2022-10-15T03:43:02;100605.84;;;11.44;97.90
68871;BME280;55906;52.278;6.808;2022-10-15T03:45:28;100601.50;;;11.46;97.84
68871;BME280;55906;52.278;6.808;2022-10-15T03:47:55;100598.97;;;11.52;97.67
68871;BME280;55906;52.278;6.808;2022-10-15T03:50:21;100592.91;;;11.56;97.84
68871;BME280;55906;52.278;6.808;2022-10-15T03:52:48;100586.81;;;11.60;97.56
68871;BME280;55906;52.278;6.808;2022-10-15T03:55:14;100585.13;;;11.64;97.51
68871;BME280;55906;52.278;6.808;2022-10-15T03:57:41;100579.03;;;11.68;97.44
68871;BME280;55906;52.278;6.808;2022-10-15T04:00:11;100581.75;;;11.71;97.42
68871;BME280;55906;52.278;6.808;2022-10-15T04:02:38;100573.03;;;11.73;97.21
68871;BME280;55906;52.278;6.808;2022-10-15T04:05:05;100575.81;;;11.81;96.69
68871;BME280;55906;52.278;6.808;2022-10-15T04:07:31;100572.28;;;11.80;96.89
68871;BME280;55906;52.278;6.808;2022-10-15T04:09:58;100569.66;;;11.80;97.36
68871;BME280;55906;52.278;6.808;2022-10-15T04:12:25;100569.69;;;11.82;96.94
68871;BME280;55906;52.278;6.808;2022-10-15T04:14:51;100570.63;;;11.85;96.61
68871;BME280;55906;52.278;6.808;2022-10-15T04:17:19;100561.88;;;11.88;96.77
68871;BME280;55906;52.278;6.808;2022-10-15T04:19:46;100567.13;;;11.88;96.64
68871;BME280;55906;52.278;6.808;2022-10-15T04:22:12;100561.06;;;11.94;96.29
68871;BME280;55906;52.278;6.808;2022-10-15T04:24:39;100555.81;;;11.94;96.56
68871;BME280;55906;52.278;6.808;2022-10-15T04:27:05;100560.16;;;11.92;96.33
68871;BME280;55906;52.278;6.808;2022-10-15T04:29:32;100560.13;;;11.90;96.12
68871;BME280;55906;52.278;6.808;2022-10-15T04:31:58;100564.50;;;11.88;96.62
68871;BME280;55906;52.278;6.808;2022-10-15T04:34:26;100560.97;;;11.88;95.92
68871;BME280;55906;52.278;6.808;2022-10-15T04:36:53;100553.06;;;11.86;96.00
68871;BME280;55906;52.278;6.808;2022-10-15T04:39:20;100562.69;;;11.84;96.36
68871;BME280;55906;52.278;6.808;2022-10-15T04:41:46;100566.13;;;11.80;96.44
68871;BME280;55906;52.278;6.808;2022-10-15T04:44:13;100568.78;;;11.80;96.21
68871;BME280;55906;52.278;6.808;2022-10-15T04:46:39;100572.28;;;11.79;96.63
68871;BME280;55906;52.278;6.808;2022-10-15T04:49:06;100569.66;;;11.80;96.44
68871;BME280;55906;52.278;6.808;2022-10-15T04:51:34;100574.88;;;11.77;96.60
68871;BME280;55906;52.278;6.808;2022-10-15T04:54:01;100582.72;;;11.76;96.76
68871;BME280;55906;52.278;6.808;2022-10-15T04:56:28;100578.31;;;11.75;96.74
68871;BME280;55906;52.278;6.808;2022-10-15T04:58:55;100581.78;;;11.72;97.18
68871;BME280;55906;52.278;6.808;2022-10-15T05:01:22;100581.78;;;11.72;97.46
68871;BME280;55906;52.278;6.808;2022-10-15T05:03:48;100582.69;;;11.73;97.23
68871;BME280;55906;52.278;6.808;2022-10-15T05:06:17;100575.72;;;11.76;97.15
68871;BME280;55906;52.278;6.808;2022-10-15T05:08:46;100571.31;;;11.77;96.90
68871;BME280;55906;52.278;6.808;2022-10-15T05:11:14;100569.63;;;11.79;97.52
68871;BME280;55906;52.278;6.808;2022-10-15T05:13:41;100570.56;;;11.82;97.04
68871;BME280;55906;52.278;6.808;2022-10-15T05:16:10;100570.56;;;11.82;96.86
68871;BME280;55906;52.278;6.808;2022-10-15T05:18:38;100585.56;;;11.87;97.17
68871;BME280;55906;52.278;6.808;2022-10-15T05:21:05;100582.06;;;11.88;97.23
68871;BME280;55906;52.278;6.808;2022-10-15T05:23:31;100588.28;;;11.91;96.64
68871;BME280;55906;52.278;6.808;2022-10-15T05:26:00;100584.78;;;11.92;97.07
68871;BME280;55906;52.278;6.808;2022-10-15T05:28:27;100593.59;;;11.94;96.99
68871;BME280;55906;52.278;6.808;2022-10-15T05:30:53;100600.66;;;11.95;96.64
68871;BME280;55906;52.278;6.808;2022-10-15T05:33:20;100595.38;;;11.95;96.85
68871;BME280;55906;52.278;6.808;2022-10-15T05:35:47;100585.78;;;12.00;96.62
68871;BME280;55906;52.278;6.808;2022-10-15T05:38:13;100586.75;;;12.05;96.57
68871;BME280;55906;52.278;6.808;2022-10-15T05:40:40;100592.91;;;12.07;96.19
68871;BME280;55906;52.278;6.808;2022-10-15T05:43:08;100592.06;;;12.08;96.93
68871;BME280;55906;52.278;6.808;2022-10-15T05:45:34;100588.59;;;12.12;96.41
68871;BME280;55906;52.278;6.808;2022-10-15T05:48:01;100585.97;;;12.12;96.63
68871;BME280;55906;52.278;6.808;2022-10-15T05:50:27;100589.50;;;12.14;96.84
68871;BME280;55906;52.278;6.808;2022-10-15T05:52:54;100592.16;;;12.16;96.47
68871;BME280;55906;52.278;6.808;2022-10-15T05:55:20;100598.34;;;12.16;96.41
68871;BME280;55906;52.278;6.808;2022-10-15T05:57:47;100586.91;;;12.17;96.85
68871;BME280;55906;52.278;6.808;2022-10-15T06:00:15;100593.06;;;12.18;96.60
68871;BME280;55906;52.278;6.808;2022-10-15T06:02:42;100584.28;;;12.17;97.07
68871;BME280;55906;52.278;6.808;2022-10-15T06:05:08;100594.00;;;12.22;96.70
68871;BME280;55906;52.278;6.808;2022-10-15T06:07:35;100592.25;;;12.22;97.26
68871;BME280;55906;52.278;6.808;2022-10-15T06:10:03;100597.53;;;12.22;96.94
68871;BME280;55906;52.278;6.808;2022-10-15T06:12:30;100594.94;;;12.25;96.88
68871;BME280;55906;52.278;6.808;2022-10-15T06:14:56;100604.59;;;12.25;96.84
68871;BME280;55906;52.278;6.808;2022-10-15T06:17:24;100596.75;;;12.28;97.37
68871;BME280;55906;52.278;6.808;2022-10-15T06:19:51;100597.66;;;12.30;97.32
68871;BME280;55906;52.278;6.808;2022-10-15T06:22:17;100597.66;;;12.30;97.14
68871;BME280;55906;52.278;6.808;2022-10-15T06:24:44;100600.31;;;12.33;96.90
68871;BME280;55906;52.278;6.808;2022-10-15T06:27:10;100590.66;;;12.33;97.10
68871;BME280;55906;52.278;6.808;2022-10-15T06:29:38;100590.72;;;12.38;97.34
68871;BME280;55906;52.278;6.808;2022-10-15T06:32:08;100594.22;;;12.37;97.28
68871;BME280;55906;52.278;6.808;2022-10-15T06:34:36;100601.31;;;12.39;97.65
68871;BME280;55906;52.278;6.808;2022-10-15T06:37:02;100596.94;;;12.41;97.40
68871;BME280;55906;52.278;6.808;2022-10-15T06:39:29;100602.25;;;12.44;97.60
68871;BME280;55906;52.278;6.808;2022-10-15T06:41:56;100596.09;;;12.45;97.90
68871;BME280;55906;52.278;6.808;2022-10-15T06:44:22;100591.75;;;12.49;97.69
68871;BME280;55906;52.278;6.808;2022-10-15T06:46:49;100592.66;;;12.51;97.95
68871;BME280;55906;52.278;6.808;2022-10-15T06:49:15;100595.28;;;12.49;97.78
68871;BME280;55906;52.278;6.808;2022-10-15T06:51:43;100598.84;;;12.53;97.80
68871;BME280;55906;52.278;6.808;2022-10-15T06:54:10;100608.50;;;12.51;98.31
68871;BME280;55906;52.278;6.808;2022-10-15T06:56:36;100615.53;;;12.50;98.27
68871;BME280;55906;52.278;6.808;2022-10-15T06:59:04;100611.19;;;12.56;98.47
68871;BME280;55906;52.278;6.808;2022-10-15T07:01:30;100613.88;;;12.59;98.91
68871;BME280;55906;52.278;6.808;2022-10-15T07:03:57;100607.75;;;12.61;98.75
68871;BME280;55906;52.278;6.808;2022-10-15T07:06:23;100610.50;;;12.70;99.25
68871;BME280;55906;52.278;6.808;2022-10-15T07:08:52;100605.31;;;12.76;99.29
68871;BME280;55906;52.278;6.808;2022-10-15T07:11:18;100600.97;;;12.81;99.40
68871;BME280;55906;52.278;6.808;2022-10-15T07:13:45;100601.94;;;12.90;99.32
68871;BME280;55906;52.278;6.808;2022-10-15T07:16:13;100604.59;;;12.91;99.21
68871;BME280;55906;52.278;6.808;2022-10-15T07:18:39;100618.78;;;12.98;99.54
68871;BME280;55906;52.278;6.808;2022-10-15T07:21:06;100619.69;;;13.00;99.59
68871;BME280;55906;52.278;6.808;2022-10-15T07:23:33;100614.38;;;12.98;99.54
68871;BME280;55906;52.278;6.808;2022-10-15T07:26:01;100616.25;;;13.04;99.74
68871;BME280;55906;52.278;6.808;2022-10-15T07:28:28;100612.75;;;13.08;99.71
68871;BME280;55906;52.278;6.808;2022-10-15T07:30:59;100617.28;;;13.17;99.54
68871;BME280;55906;52.278;6.808;2022-10-15T07:33:26;100605.91;;;13.22;99.49
68871;BME280;55906;52.278;6.808;2022-10-15T07:35:52;100605.94;;;13.25;99.26
68871;BME280;55906;52.278;6.808;2022-10-15T07:38:19;100614.81;;;13.32;99.07
68871;BME280;55906;52.278;6.808;2022-10-15T07:40:47;100618.38;;;13.35;98.84
68871;BME280;55906;52.278;6.808;2022-10-15T07:43:15;100621.94;;;13.37;98.91
68871;BME280;55906;52.278;6.808;2022-10-15T07:45:46;100617.59;;;13.45;98.25
68871;BME280;55906;52.278;6.808;2022-10-15T07:48:13;100611.38;;;13.39;98.37
68871;BME280;55906;52.278;6.808;2022-10-15T07:50:39;100609.66;;;13.44;98.61
68871;BME280;55906;52.278;6.808;2022-10-15T07:53:06;100614.97;;;13.47;98.61
68871;BME280;55906;52.278;6.808;2022-10-15T07:55:33;100615.91;;;13.52;98.20
68871;BME280;55906;52.278;6.808;2022-10-15T07:58:00;100617.69;;;13.55;98.18
68871;BME280;55906;52.278;6.808;2022-10-15T08:00:28;100615.97;;;13.60;98.28
68871;BME280;55906;52.278;6.808;2022-10-15T08:02:54;100616.88;;;13.60;98.21
68871;BME280;55906;52.278;6.808;2022-10-15T08:05:21;100615.13;;;13.64;98.08
68871;BME280;55906;52.278;6.808;2022-10-15T08:07:47;100609.84;;;13.64;97.69
68871;BME280;55906;52.278;6.808;2022-10-15T08:10:14;100612.44;;;13.59;97.70
68871;BME280;55906;52.278;6.808;2022-10-15T08:12:42;100608.06;;;13.63;97.63
68871;BME280;55906;52.278;6.808;2022-10-15T08:15:09;100612.47;;;13.62;97.43
68871;BME280;55906;52.278;6.808;2022-10-15T08:17:39;100617.72;;;13.58;97.51
68871;BME280;55906;52.278;6.808;2022-10-15T08:20:06;100614.16;;;13.54;97.92
68871;BME280;55906;52.278;6.808;2022-10-15T08:22:33;100610.66;;;13.55;98.10
68871;BME280;55906;52.278;6.808;2022-10-15T08:24:59;100620.38;;;13.58;98.03
68871;BME280;55906;52.278;6.808;2022-10-15T08:27:26;100616.84;;;13.59;97.98
68871;BME280;55906;52.278;6.808;2022-10-15T08:29:53;100618.59;;;13.57;97.88
68871;BME280;55906;52.278;6.808;2022-10-15T08:32:20;100631.81;;;13.58;97.74
68871;BME280;55906;52.278;6.808;2022-10-15T08:34:48;100634.41;;;13.54;98.29
68871;BME280;55906;52.278;6.808;2022-10-15T08:37:14;100635.31;;;13.56;97.75
68871;BME280;55906;52.278;6.808;2022-10-15T08:39:43;100638.03;;;13.62;97.13
68871;BME280;55906;52.278;6.808;2022-10-15T08:42:16;100636.25;;;13.61;97.03
68871;BME280;55906;52.278;6.808;2022-10-15T08:44:46;100629.25;;;13.66;97.08
68871;BME280;55906;52.278;6.808;2022-10-15T08:47:27;100638.13;;;13.74;96.53
68871;BME280;55906;52.278;6.808;2022-10-15T08:50:00;100639.03;;;13.76;96.28
68871;BME280;55906;52.278;6.808;2022-10-15T08:52:37;100639.97;;;13.81;96.12
68871;BME280;55906;52.278;6.808;2022-10-15T08:55:09;100638.25;;;13.86;95.93
68871;BME280;55906;52.278;6.808;2022-10-15T08:57:42;100621.53;;;13.90;95.11
68871;BME280;55906;52.278;6.808;2022-10-15T09:00:17;100622.50;;;14.03;94.67
68871;BME280;55906;52.278;6.808;2022-10-15T09:02:50;100617.22;;;14.03;94.78
68871;BME280;55906;52.278;6.808;2022-10-15T09:05:42;100608.47;;;14.12;94.71
68871;BME280;55906;52.278;6.808;2022-10-15T09:08:19;100604.09;;;14.18;94.70
68871;BME280;55906;52.278;6.808;2022-10-15T09:10:50;100599.72;;;14.22;94.38
68871;BME280;55906;52.278;6.808;2022-10-15T09:13:23;100613.00;;;14.29;93.91
68871;BME280;55906;52.278;6.808;2022-10-15T09:15:55;100612.22;;;14.38;93.28
68871;BME280;55906;52.278;6.808;2022-10-15T09:18:24;100613.06;;;14.35;93.42
68871;BME280;55906;52.278;6.808;2022-10-15T09:20:53;100604.25;;;14.35;93.32
68871;BME280;55906;52.278;6.808;2022-10-15T09:23:23;100595.41;;;14.31;93.77
68871;BME280;55906;52.278;6.808;2022-10-15T09:25:55;100595.44;;;14.37;93.55
68871;BME280;55906;52.278;6.808;2022-10-15T09:28:30;100595.50;;;14.44;93.65
68871;BME280;55906;52.278;6.808;2022-10-15T09:31:03;100591.09;;;14.46;93.42
68871;BME280;55906;52.278;6.808;2022-10-15T09:33:36;100572.63;;;14.56;93.32
68871;BME280;55906;52.278;6.808;2022-10-15T09:36:21;100566.50;;;14.65;92.78
68871;BME280;55906;52.278;6.808;2022-10-15T09:39:00;100557.66;;;14.64;93.02
68871;BME280;55906;52.278;6.808;2022-10-15T09:41:35;100558.59;;;14.77;92.20
68871;BME280;55906;52.278;6.808;2022-10-15T09:44:09;100554.25;;;14.97;92.20
68871;BME280;55906;52.278;6.808;2022-10-15T09:46:42;100534.88;;;15.33;89.94
68871;BME280;55906;52.278;6.808;2022-10-15T09:49:12;100540.19;;;15.52;90.19
68871;BME280;55906;52.278;6.808;2022-10-15T09:51:52;100540.25;;;15.75;88.84
68871;BME280;55906;52.278;6.808;2022-10-15T09:54:25;100526.97;;;15.96;87.04
68871;BME280;55906;52.278;6.808;2022-10-15T09:56:56;100535.75;;;16.24;86.21
68871;BME280;55906;52.278;6.808;2022-10-15T09:59:24;100542.78;;;16.37;84.72
68871;BME280;55906;52.278;6.808;2022-10-15T10:01:59;100537.38;;;16.74;83.84
68871;BME280;55906;52.278;6.808;2022-10-15T10:04:27;100533.78;;;16.82;80.76
68871;BME280;55906;52.278;6.808;2022-10-15T10:06:58;100543.50;;;16.92;81.06
68871;BME280;55906;52.278;6.808;2022-10-15T10:09:28;100545.19;;;17.06;80.02
68871;BME280;55906;52.278;6.808;2022-10-15T10:11:58;100548.72;;;17.09;80.93
68871;BME280;55906;52.278;6.808;2022-10-15T10:14:28;100548.75;;;17.05;79.66
68871;BME280;55906;52.278;6.808;2022-10-15T10:17:04;100539.00;;;17.05;79.78
68871;BME280;55906;52.278;6.808;2022-10-15T10:19:31;100543.41;;;17.08;78.42
68871;BME280;55906;52.278;6.808;2022-10-15T10:22:06;100541.63;;;17.08;78.40
68871;BME280;55906;52.278;6.808;2022-10-15T10:24:37;100529.91;;;17.41;78.64
68871;BME280;55906;52.278;6.808;2022-10-15T10:27:17;100535.06;;;17.61;77.02
68871;BME280;55906;52.278;6.808;2022-10-15T10:29:48;100519.72;;;17.94;77.11
68871;BME280;55906;52.278;6.808;2022-10-15T10:32:28;100514.63;;;18.53;74.14
68871;BME280;55906;52.278;6.808;2022-10-15T10:34:56;100508.41;;;19.19;71.80
68871;BME280;55906;52.278;6.808;2022-10-15T10:37:25;100496.63;;;19.34;71.64
68871;BME280;55906;52.278;6.808;2022-10-15T10:39:53;100498.84;;;19.06;70.56
68871;BME280;55906;52.278;6.808;2022-10-15T10:42:31;100487.28;;;19.05;70.80
68871;BME280;55906;52.278;6.808;2022-10-15T10:45:17;100477.16;;;19.27;69.28
68871;BME280;55906;52.278;6.808;2022-10-15T10:47:44;100472.59;;;19.34;69.91
68871;BME280;55906;52.278;6.808;2022-10-15T10:50:26;100470.13;;;19.23;69.77
68871;BME280;55906;52.278;6.808;2022-10-15T10:52:55;100477.38;;;19.13;70.38
68871;BME280;55906;52.278;6.808;2022-10-15T10:55:31;100483.78;;;19.02;70.40
68871;BME280;55906;52.278;6.808;2022-10-15T10:58:00;100481.47;;;18.77;71.15
68871;BME280;55906;52.278;6.808;2022-10-15T11:00:34;100480.34;;;18.94;70.70
68871;BME280;55906;52.278;6.808;2022-10-15T11:03:03;100473.22;;;18.96;70.42
68871;BME280;55906;52.278;6.808;2022-10-15T11:05:33;100460.63;;;19.05;70.98
68871;BME280;55906;52.278;6.808;2022-10-15T11:08:13;100463.03;;;19.21;70.26
68871;BME280;55906;52.278;6.808;2022-10-15T11:10:49;100457.03;;;19.06;70.99
68871;BME280;55906;52.278;6.808;2022-10-15T11:13:39;100461.72;;;18.92;70.77
68871;BME280;55906;52.278;6.808;2022-10-15T11:16:14;100454.03;;;18.71;71.58
68871;BME280;55906;52.278;6.808;2022-10-15T11:18:54;100448.97;;;18.48;72.81
68871;BME280;55906;52.278;6.808;2022-10-15T11:21:37;100457.22;;;18.28;74.72
68871;BME280;55906;52.278;6.808;2022-10-15T11:24:15;100452.94;;;18.13;76.42
68871;BME280;55906;52.278;6.808;2022-10-15T11:27:07;100446.97;;;17.93;77.00
68871;BME280;55906;52.278;6.808;2022-10-15T11:29:43;100462.22;;;17.76;77.69
68871;BME280;55906;52.278;6.808;2022-10-15T11:32:32;100463.19;;;17.64;79.17
68871;BME280;55906;52.278;6.808;2022-10-15T11:35:13;100456.31;;;17.42;81.60
68871;BME280;55906;52.278;6.808;2022-10-15T11:37:50;100467.09;;;17.23;82.84
68871;BME280;55906;52.278;6.808;2022-10-15T11:40:29;100463.66;;;17.09;82.83
68871;BME280;55906;52.278;6.808;2022-10-15T11:43:02;100456.69;;;16.88;83.52
68871;BME280;55906;52.278;6.808;2022-10-15T11:45:47;100455.03;;;16.71;85.69
68871;BME280;55906;52.278;6.808;2022-10-15T11:48:27;100451.50;;;16.62;85.59
68871;BME280;55906;52.278;6.808;2022-10-15T11:51:02;100453.31;;;16.57;87.46
68871;BME280;55906;52.278;6.808;2022-10-15T11:53:46;100439.22;;;16.45;88.03
68871;BME280;55906;52.278;6.808;2022-10-15T11:56:19;100445.44;;;16.39;89.05
68871;BME280;55906;52.278;6.808;2022-10-15T11:58:51;100445.41;;;16.44;89.20
68871;BME280;55906;52.278;6.808;2022-10-15T12:01:24;100435.72;;;16.35;88.70
68871;BME280;55906;52.278;6.808;2022-10-15T12:03:57;100430.41;;;16.37;89.08
68871;BME280;55906;52.278;6.808;2022-10-15T12:06:27;100431.28;;;16.39;88.50
68871;BME280;55906;52.278;6.808;2022-10-15T12:08:56;100430.41;;;16.35;89.47
68871;BME280;55906;52.278;6.808;2022-10-15T12:11:35;100416.25;;;16.31;90.16
68871;BME280;55906;52.278;6.808;2022-10-15T12:14:10;100424.22;;;16.35;89.55
68871;BME280;55906;52.278;6.808;2022-10-15T12:16:44;100418.00;;;16.36;89.93
68871;BME280;55906;52.278;6.808;2022-10-15T12:19:15;100415.34;;;16.40;89.69
68871;BME280;55906;52.278;6.808;2022-10-15T12:21:59;100417.97;;;16.43;89.59
68871;BME280;55906;52.278;6.808;2022-10-15T12:24:53;100418.88;;;16.39;89.64
68871;BME280;55906;52.278;6.808;2022-10-15T12:27:27;100413.59;;;16.36;89.69
68871;BME280;55906;52.278;6.808;2022-10-15T12:30:25;100411.78;;;16.41;90.13
68871;BME280;55906;52.278;6.808;2022-10-15T12:32:52;100408.28;;;16.33;90.19
68871;BME280;55906;52.278;6.808;2022-10-15T12:35:30;100406.50;;;16.38;90.99
68871;BME280;55906;52.278;6.808;2022-10-15T12:38:09;100395.88;;;16.38;90.47
68871;BME280;55906;52.278;6.808;2022-10-15T12:40:38;100401.19;;;16.40;90.70
68871;BME280;55906;52.278;6.808;2022-10-15T12:43:13;100396.75;;;16.37;90.89
68871;BME280;55906;52.278;6.808;2022-10-15T12:45:48;100404.69;;;16.45;90.65
68871;BME280;55906;52.278;6.808;2022-10-15T12:48:26;100393.16;;;16.50;91.09
68871;BME280;55906;52.278;6.808;2022-10-15T12:54:39;100385.13;;;16.59;90.15
68871;BME280;55906;52.278;6.808;2022-10-15T13:00:32;100381.63;;;16.53;91.10
68871;BME280;55906;52.278;6.808;2022-10-15T13:03:20;100382.47;;;16.56;91.58
68871;BME280;55906;52.278;6.808;2022-10-15T13:05:48;100380.72;;;16.55;91.58
68871;BME280;55906;52.278;6.808;2022-10-15T13:08:19;100379.81;;;16.58;92.14
68871;BME280;55906;52.278;6.808;2022-10-15T13:10:50;100374.53;;;16.52;93.11
68871;BME280;55906;52.278;6.808;2022-10-15T13:13:21;100371.06;;;16.45;93.53